createdAt,value
2023-04-09T00:00:24.259Z,11.80
2023-04-09T00:02:51.192Z,11.80
2023-04-09T00:05:18.099Z,11.80
2023-04-09T00:07:47.691Z,11.80
2023-04-09T00:10:16.805Z,11.80
2023-04-09T00:12:43.619Z,11.70
2023-04-09T00:15:14.989Z,11.80
2023-04-09T00:17:47.577Z,11.80
2023-04-09T00:20:15.795Z,11.80
2023-04-09T00:22:42.620Z,11.80
2023-04-09T00:25:09.524Z,11.80
2023-04-09T00:27:36.273Z,11.80
2023-04-09T00:30:03.174Z,11.70
2023-04-09T00:32:30.012Z,11.70
2023-04-09T00:34:56.857Z,11.70
2023-04-09T00:37:23.567Z,11.70
2023-04-09T00:39:50.712Z,11.70
2023-04-09T00:42:18.021Z,11.70
2023-04-09T00:44:44.778Z,11.70
2023-04-09T00:47:11.751Z,11.70
2023-04-09T00:49:38.482Z,11.70
2023-04-09T00:52:05.741Z,11.60
2023-04-09T00:54:32.815Z,11.60
2023-04-09T00:57:00.073Z,11.60
2023-04-09T00:59:27.029Z,11.60
2023-04-09T01:01:53.757Z,11.60
2023-04-09T01:04:21.686Z,11.60
2023-04-09T01:06:53.838Z,11.60
2023-04-09T01:09:23.786Z,11.60
2023-04-09T01:12:16.618Z,11.60
2023-04-09T01:15:22.297Z,11.60
2023-04-09T01:18:01.505Z,11.60
2023-04-09T01:20:48.031Z,11.60
2023-04-09T01:23:27.666Z,11.60
2023-04-09T01:26:24.887Z,11.60
2023-04-09T01:28:56.626Z,11.60
2023-04-09T01:31:33.933Z,11.60
2023-04-09T01:34:02.210Z,11.50
2023-04-09T01:36:32.326Z,11.60
2023-04-09T01:39:01.388Z,11.60
2023-04-09T01:41:30.744Z,11.60
2023-04-09T01:44:01.849Z,11.60
2023-04-09T01:46:29.718Z,11.60
2023-04-09T01:48:57.452Z,11.60
2023-04-09T01:51:24.571Z,11.50
2023-04-09T01:53:51.544Z,11.50
2023-04-09T01:56:18.386Z,11.50
2023-04-09T01:58:45.190Z,11.50
2023-04-09T02:01:23.181Z,11.50
2023-04-09T02:04:04.279Z,11.50
2023-04-09T02:06:44.362Z,11.50
2023-04-09T02:09:15.699Z,11.50
2023-04-09T02:11:45.993Z,11.50
2023-04-09T02:14:15.944Z,11.50
2023-04-09T02:16:45.247Z,11.50
2023-04-09T02:19:12.010Z,11.50
2023-04-09T02:21:38.894Z,11.50
2023-04-09T02:24:06.177Z,11.50
2023-04-09T02:26:32.990Z,11.50
2023-04-09T02:28:59.692Z,11.40
2023-04-09T02:31:26.425Z,11.40
2023-04-09T02:33:54.241Z,11.40
2023-04-09T02:36:21.131Z,11.40
2023-04-09T02:38:47.924Z,11.40
2023-04-09T02:41:14.699Z,11.40
2023-04-09T02:43:41.527Z,11.40
2023-04-09T02:46:08.648Z,11.40
2023-04-09T02:48:35.479Z,11.40
2023-04-09T02:51:04.634Z,11.40
2023-04-09T02:53:33.395Z,11.40
2023-04-09T02:56:00.220Z,11.40
2023-04-09T02:58:26.931Z,11.40
2023-04-09T03:00:53.712Z,11.40
2023-04-09T03:03:20.569Z,11.40
2023-04-09T03:05:47.346Z,11.40
2023-04-09T03:08:14.231Z,11.40
2023-04-09T03:10:41.064Z,11.40
2023-04-09T03:13:07.784Z,11.30
2023-04-09T03:15:34.525Z,11.30
2023-04-09T03:18:01.306Z,11.30
2023-04-09T03:20:28.131Z,11.30
2023-04-09T03:22:54.856Z,11.30
2023-04-09T03:25:21.718Z,11.30
2023-04-09T03:27:48.607Z,11.30
2023-04-09T03:30:15.470Z,11.30
2023-04-09T03:32:42.262Z,11.30
2023-04-09T03:35:09.283Z,11.20
2023-04-09T03:37:36.026Z,11.20
2023-04-09T03:40:03.408Z,11.20
2023-04-09T03:42:30.361Z,11.20
2023-04-09T03:44:57.156Z,11.20
2023-04-09T03:47:24.040Z,11.20
2023-04-09T03:49:50.847Z,11.20
2023-04-09T03:52:17.605Z,11.20
2023-04-09T03:54:44.366Z,11.20
2023-04-09T03:57:11.260Z,11.20
2023-04-09T03:59:38.131Z,11.20
2023-04-09T04:02:05.070Z,11.20
2023-04-09T04:04:32.020Z,11.20
2023-04-09T04:06:58.784Z,11.10
2023-04-09T04:09:25.913Z,11.10
2023-04-09T04:11:52.627Z,11.10
2023-04-09T04:14:19.518Z,11.10
2023-04-09T04:16:46.335Z,11.10
2023-04-09T04:19:15.935Z,11.10
2023-04-09T04:21:42.669Z,11.10
2023-04-09T04:24:09.463Z,11.10
2023-04-09T04:26:36.196Z,11.10
2023-04-09T04:29:03.603Z,11.10
2023-04-09T04:31:30.498Z,11.10
2023-04-09T04:33:57.232Z,11.10
2023-04-09T04:36:23.916Z,11.00
2023-04-09T04:38:50.867Z,11.00
2023-04-09T04:41:17.719Z,11.00
2023-04-09T04:43:44.467Z,11.00
2023-04-09T04:46:11.185Z,11.00
2023-04-09T04:48:37.911Z,11.00
2023-04-09T04:51:04.915Z,11.00
2023-04-09T04:53:31.584Z,11.00
2023-04-09T04:55:58.412Z,10.90
2023-04-09T04:58:26.027Z,10.90
2023-04-09T05:00:52.851Z,10.90
2023-04-09T05:03:23.112Z,10.90
2023-04-09T05:05:50.542Z,10.80
2023-04-09T05:08:17.358Z,10.80
2023-04-09T05:10:44.755Z,10.80
2023-04-09T05:13:11.458Z,10.80
2023-04-09T05:15:41.783Z,10.80
2023-04-09T05:18:08.819Z,10.80
2023-04-09T05:20:35.746Z,10.80
2023-04-09T05:23:05.208Z,10.80
2023-04-09T05:25:32.082Z,10.80
2023-04-09T05:27:58.786Z,10.80
2023-04-09T05:30:25.575Z,10.80
2023-04-09T05:32:52.360Z,10.70
2023-04-09T05:35:19.554Z,10.70
2023-04-09T05:37:46.230Z,10.60
2023-04-09T05:40:13.585Z,10.60
2023-04-09T05:42:40.457Z,10.60
2023-04-09T05:45:07.903Z,10.60
2023-04-09T05:47:34.740Z,10.50
2023-04-09T05:50:02.031Z,10.50
2023-04-09T05:52:28.817Z,10.50
2023-04-09T05:54:55.837Z,10.50
2023-04-09T05:57:22.703Z,10.50
2023-04-09T05:59:51.309Z,10.50
2023-04-09T06:02:18.161Z,10.50
2023-04-09T06:04:45.016Z,10.50
2023-04-09T06:07:11.883Z,10.50
2023-04-09T06:09:38.799Z,10.50
2023-04-09T06:12:05.684Z,10.50
2023-04-09T06:14:33.175Z,10.40
2023-04-09T06:17:00.281Z,10.40
2023-04-09T06:19:27.424Z,10.40
2023-04-09T06:21:54.285Z,10.40
2023-04-09T06:24:21.166Z,10.40
2023-04-09T06:26:47.958Z,10.40
2023-04-09T06:29:15.069Z,10.40
2023-04-09T06:31:42.056Z,10.40
2023-04-09T06:34:08.838Z,10.40
2023-04-09T06:36:39.975Z,10.50
2023-04-09T06:39:07.274Z,10.50
2023-04-09T06:41:34.399Z,10.50
2023-04-09T06:44:03.390Z,10.50
2023-04-09T06:46:30.197Z,10.50
2023-04-09T06:48:57.025Z,10.50
2023-04-09T06:51:23.928Z,10.50
2023-04-09T06:53:51.202Z,10.60
2023-04-09T06:56:18.514Z,10.60
2023-04-09T06:58:45.318Z,10.60
2023-04-09T07:01:12.893Z,10.60
2023-04-09T07:03:39.753Z,10.60
2023-04-09T07:06:06.705Z,10.60
2023-04-09T07:08:33.538Z,10.70
2023-04-09T07:11:00.282Z,10.70
2023-04-09T07:15:53.709Z,10.80
2023-04-09T07:18:20.821Z,10.90
2023-04-09T07:20:51.931Z,11.00
2023-04-09T07:23:18.632Z,11.00
2023-04-09T07:25:45.651Z,11.10
2023-04-09T07:28:12.551Z,11.20
2023-04-09T07:30:40.051Z,11.30
2023-04-09T07:33:07.065Z,11.70
2023-04-09T07:35:34.800Z,12.50
2023-04-09T07:38:01.623Z,13.40
2023-04-09T07:40:32.600Z,14.30
2023-04-09T07:42:59.358Z,15.00
2023-04-09T07:45:26.137Z,15.60
2023-04-09T07:47:53.211Z,16.20
2023-04-09T07:50:22.671Z,16.80
2023-04-09T07:52:49.542Z,17.30
2023-04-09T07:55:17.454Z,17.80
2023-04-09T07:57:45.314Z,18.20
2023-04-09T08:00:12.675Z,18.50
2023-04-09T08:02:39.617Z,18.70
2023-04-09T08:05:07.857Z,18.90
2023-04-09T08:07:34.705Z,19.00
2023-04-09T08:10:01.723Z,19.10
2023-04-09T08:12:31.334Z,19.10
2023-04-09T08:14:58.113Z,19.00
2023-04-09T08:17:24.912Z,18.70
2023-04-09T08:19:51.682Z,18.20
2023-04-09T08:22:18.439Z,17.60
2023-04-09T08:24:45.608Z,17.20
2023-04-09T08:27:12.345Z,16.80
2023-04-09T08:29:40.620Z,16.60
2023-04-09T08:32:08.168Z,16.30
2023-04-09T08:34:35.198Z,16.10
2023-04-09T08:37:02.530Z,16.00
2023-04-09T08:39:31.963Z,15.90
2023-04-09T08:42:01.798Z,15.80
2023-04-09T08:44:29.460Z,15.70
2023-04-09T08:46:58.356Z,15.70
2023-04-09T08:49:26.449Z,15.90
2023-04-09T08:51:53.231Z,16.30
2023-04-09T08:54:20.285Z,16.70
2023-04-09T08:56:47.439Z,17.00
2023-04-09T08:59:20.740Z,17.10
2023-04-09T09:01:54.525Z,17.40
2023-04-09T09:04:21.507Z,17.60
2023-04-09T09:06:48.355Z,18.00
2023-04-09T09:09:18.282Z,18.20
2023-04-09T09:11:48.375Z,18.40
2023-04-09T09:14:17.454Z,18.40
2023-04-09T09:17:04.034Z,18.40
2023-04-09T09:19:34.247Z,18.50
2023-04-09T09:22:08.071Z,18.40
2023-04-09T09:24:47.196Z,18.40
2023-04-09T09:27:37.065Z,18.40
2023-04-09T09:30:07.806Z,18.50
2023-04-09T09:32:34.857Z,18.50
2023-04-09T09:35:03.287Z,18.50
2023-04-09T09:37:31.140Z,18.30
2023-04-09T09:39:58.903Z,18.20
2023-04-09T09:42:29.699Z,18.10
2023-04-09T09:44:56.516Z,18.10
2023-04-09T09:47:25.196Z,18.20
2023-04-09T09:49:52.612Z,18.20
2023-04-09T09:52:26.990Z,18.20
2023-04-09T09:54:56.126Z,18.30
2023-04-09T09:57:27.105Z,18.40
2023-04-09T10:00:02.602Z,18.50
2023-04-09T10:02:37.874Z,18.70
2023-04-09T10:05:09.947Z,18.90
2023-04-09T10:07:38.592Z,19.10
2023-04-09T10:10:07.324Z,19.20
2023-04-09T10:12:36.779Z,19.30
2023-04-09T10:15:06.339Z,19.40
2023-04-09T10:17:39.081Z,19.40
2023-04-09T10:20:12.746Z,19.20
2023-04-09T10:22:40.176Z,19.30
2023-04-09T10:25:07.556Z,19.50
2023-04-09T10:27:34.267Z,19.70
2023-04-09T10:30:01.821Z,19.80
2023-04-09T10:32:36.296Z,19.90
2023-04-09T10:35:04.284Z,19.80
2023-04-09T10:37:31.748Z,19.60
2023-04-09T10:39:58.772Z,19.60
2023-04-09T10:42:40.301Z,19.80
2023-04-09T10:45:14.982Z,19.60
2023-04-09T10:47:43.504Z,19.20
2023-04-09T10:50:30.471Z,18.90
2023-04-09T10:53:00.252Z,18.70
2023-04-09T10:55:38.848Z,18.80
2023-04-09T10:58:09.715Z,19.20
2023-04-09T11:00:50.915Z,19.60
2023-04-09T11:03:27.912Z,19.80
2023-04-09T11:06:07.178Z,19.80
2023-04-09T11:08:34.793Z,19.80
2023-04-09T11:11:02.453Z,19.80
2023-04-09T11:13:31.091Z,19.70
2023-04-09T11:15:58.918Z,19.60
2023-04-09T11:18:28.334Z,19.70
2023-04-09T11:20:59.991Z,19.70
2023-04-09T11:23:27.513Z,19.50
2023-04-09T11:25:57.565Z,19.40
2023-04-09T11:28:25.238Z,19.50
2023-04-09T11:30:52.559Z,19.40
2023-04-09T11:33:20.495Z,19.50
2023-04-09T11:35:47.814Z,19.50
2023-04-09T11:38:14.895Z,19.50
2023-04-09T11:40:49.906Z,19.40
2023-04-09T11:43:17.604Z,19.40
2023-04-09T11:45:48.698Z,19.20
2023-04-09T11:48:21.838Z,19.20
2023-04-09T11:50:48.902Z,19.40
2023-04-09T11:53:22.522Z,19.50
2023-04-09T11:55:53.357Z,19.60
2023-04-09T11:58:24.685Z,19.70
2023-04-09T12:01:00.849Z,19.90
2023-04-09T12:03:33.277Z,20.20
2023-04-09T12:06:02.585Z,20.40
2023-04-09T12:08:29.553Z,20.60
2023-04-09T12:10:56.382Z,20.80
2023-04-09T12:13:33.396Z,20.90
2023-04-09T12:16:02.250Z,20.70
2023-04-09T12:18:29.296Z,20.60
2023-04-09T12:20:56.072Z,20.50
2023-04-09T12:23:22.912Z,20.60
2023-04-09T12:25:49.609Z,20.70
2023-04-09T12:28:18.240Z,20.70
2023-04-09T12:30:46.327Z,20.90
2023-04-09T12:33:13.445Z,21.00
2023-04-09T12:35:40.191Z,21.00
2023-04-09T12:38:15.802Z,20.90
2023-04-09T12:40:42.661Z,20.70
2023-04-09T12:43:09.387Z,20.60
2023-04-09T12:45:36.739Z,20.50
2023-04-09T12:48:03.715Z,20.40
2023-04-09T12:50:30.689Z,20.20
2023-04-09T12:52:57.412Z,20.10
2023-04-09T12:55:24.261Z,20.20
2023-04-09T12:57:51.338Z,20.60
2023-04-09T13:00:18.195Z,20.80
2023-04-09T13:02:45.092Z,21.20
2023-04-09T13:05:12.326Z,21.30
2023-04-09T13:07:40.875Z,21.30
2023-04-09T13:10:10.045Z,21.50
2023-04-09T13:12:39.888Z,21.60
2023-04-09T13:15:07.258Z,21.40
2023-04-09T13:17:34.228Z,21.20
2023-04-09T13:20:01.657Z,21.00
2023-04-09T13:22:28.525Z,20.90
2023-04-09T13:24:55.638Z,20.80
2023-04-09T13:27:23.743Z,20.90
2023-04-09T13:29:50.594Z,21.00
2023-04-09T13:32:22.090Z,21.10
2023-04-09T13:34:49.410Z,21.30
2023-04-09T13:38:04.019Z,21.50
2023-04-09T13:41:30.779Z,21.40
2023-04-09T13:44:02.268Z,21.10
2023-04-09T13:46:29.403Z,21.20
2023-04-09T13:48:56.247Z,21.20
2023-04-09T13:51:23.256Z,21.30
2023-04-09T13:53:50.229Z,21.30
2023-04-09T13:56:17.189Z,21.40
2023-04-09T13:58:44.440Z,21.40
2023-04-09T14:01:11.956Z,21.50
2023-04-09T14:03:40.304Z,21.60
2023-04-09T14:06:10.908Z,21.60
2023-04-09T14:08:37.642Z,21.70
2023-04-09T14:11:05.795Z,21.80
2023-04-09T14:13:32.972Z,21.90
2023-04-09T14:16:02.597Z,21.90
2023-04-09T14:18:29.355Z,21.70
2023-04-09T14:20:56.323Z,21.50
2023-04-09T14:23:23.070Z,21.60
2023-04-09T14:25:49.897Z,21.60
2023-04-09T14:28:16.893Z,21.70
2023-04-09T14:30:43.690Z,21.70
2023-04-09T14:33:10.778Z,21.70
2023-04-09T14:35:37.664Z,21.90
2023-04-09T14:38:04.527Z,22.00
2023-04-09T14:40:32.024Z,22.00
2023-04-09T14:43:01.833Z,21.90
2023-04-09T14:45:30.528Z,21.70
2023-04-09T14:47:57.852Z,21.60
2023-04-09T14:50:28.754Z,21.50
2023-04-09T14:52:55.471Z,21.50
2023-04-09T14:55:22.361Z,21.40
2023-04-09T14:57:49.228Z,21.40
2023-04-09T15:00:16.267Z,21.30
2023-04-09T15:02:45.718Z,21.10
2023-04-09T15:05:12.488Z,21.10
2023-04-09T15:07:39.413Z,21.20
2023-04-09T15:10:08.289Z,21.30
2023-04-09T15:12:35.243Z,21.20
2023-04-09T15:15:06.012Z,21.10
2023-04-09T15:17:32.912Z,21.10
2023-04-09T15:19:59.794Z,21.20
2023-04-09T15:22:26.769Z,21.20
2023-04-09T15:24:54.177Z,21.10
2023-04-09T15:27:21.019Z,21.00
2023-04-09T15:29:47.777Z,20.90
2023-04-09T15:32:14.697Z,20.80
2023-04-09T15:34:41.415Z,20.80
2023-04-09T15:37:08.180Z,20.80
2023-04-09T15:39:35.544Z,20.80
2023-04-09T15:42:02.532Z,20.90
2023-04-09T15:44:29.287Z,20.90
2023-04-09T15:46:56.448Z,21.00
2023-04-09T15:49:23.274Z,21.10
2023-04-09T15:51:50.043Z,21.20
2023-04-09T15:54:19.689Z,21.10
2023-04-09T15:56:46.614Z,20.90
2023-04-09T15:59:13.566Z,20.70
2023-04-09T16:01:40.309Z,20.70
2023-04-09T16:04:08.993Z,20.60
2023-04-09T16:06:37.178Z,20.60
2023-04-09T16:09:07.150Z,20.40
2023-04-09T16:11:36.307Z,20.20
2023-04-09T16:14:03.834Z,19.90
2023-04-09T16:16:30.578Z,19.80
2023-04-09T16:18:57.479Z,19.70
2023-04-09T16:21:24.325Z,19.70
2023-04-09T16:23:51.659Z,19.60
2023-04-09T16:26:18.514Z,19.50
2023-04-09T16:28:45.537Z,19.50
2023-04-09T16:31:14.713Z,19.50
2023-04-09T16:33:41.467Z,19.50
2023-04-09T16:36:08.266Z,19.50
2023-04-09T16:38:35.205Z,19.40
2023-04-09T16:41:01.955Z,19.40
2023-04-09T16:43:30.261Z,19.20
2023-04-09T16:45:57.277Z,19.00
2023-04-09T16:48:27.063Z,18.80
2023-04-09T16:50:53.980Z,18.70
2023-04-09T16:53:20.916Z,18.70
2023-04-09T16:55:47.659Z,18.60
2023-04-09T16:58:14.696Z,18.50
2023-04-09T17:00:42.052Z,18.40
2023-04-09T17:03:10.895Z,18.30
2023-04-09T17:05:38.026Z,18.20
2023-04-09T17:08:06.379Z,18.10
2023-04-09T17:10:33.346Z,18.00
2023-04-09T17:13:00.311Z,17.80
2023-04-09T17:15:27.304Z,17.70
2023-04-09T17:17:54.166Z,17.70
2023-04-09T17:20:25.213Z,17.60
2023-04-09T17:22:52.443Z,17.60
2023-04-09T17:25:20.625Z,17.50
2023-04-09T17:27:49.845Z,17.50
2023-04-09T17:30:18.919Z,17.40
2023-04-09T17:32:45.892Z,17.40
2023-04-09T17:35:12.793Z,17.30
2023-04-09T17:37:39.582Z,17.20
2023-04-09T17:40:10.063Z,17.10
2023-04-09T17:42:36.828Z,17.10
2023-04-09T17:45:04.710Z,17.00
2023-04-09T17:47:31.656Z,16.90
2023-04-09T17:49:58.358Z,16.90
2023-04-09T17:52:25.198Z,16.80
2023-04-09T17:54:52.234Z,16.70
2023-04-09T17:57:18.990Z,16.70
2023-04-09T17:59:45.703Z,16.60
2023-04-09T18:02:12.891Z,16.50
2023-04-09T18:04:40.008Z,16.50
2023-04-09T18:07:10.076Z,16.40
2023-04-09T18:09:39.084Z,16.30
2023-04-09T18:12:06.222Z,16.20
2023-04-09T18:14:32.990Z,16.10
2023-04-09T18:16:59.945Z,16.10
2023-04-09T18:19:26.754Z,16.00
2023-04-09T18:21:53.617Z,15.90
2023-04-09T18:24:20.512Z,15.80
2023-04-09T18:26:47.442Z,15.70
2023-04-09T18:29:14.980Z,15.60
2023-04-09T18:31:42.019Z,15.60
2023-04-09T18:34:08.769Z,15.50
2023-04-09T18:36:38.145Z,15.40
2023-04-09T18:39:05.053Z,15.30
2023-04-09T18:41:32.077Z,15.20
2023-04-09T18:43:58.814Z,15.10
2023-04-09T18:46:26.650Z,15.00
2023-04-09T18:48:53.500Z,14.90
2023-04-09T18:51:23.214Z,14.80
2023-04-09T18:53:54.952Z,14.80
2023-04-09T18:56:22.017Z,14.70
2023-04-09T18:58:48.913Z,14.60
2023-04-09T19:01:17.398Z,14.50
2023-04-09T19:03:44.830Z,14.40
2023-04-09T19:06:14.590Z,14.30
2023-04-09T19:08:41.794Z,14.30
2023-04-09T19:11:08.669Z,14.20
2023-04-09T19:13:36.782Z,14.10
2023-04-09T19:16:06.812Z,14.00
2023-04-09T19:18:34.765Z,13.90
2023-04-09T19:21:01.761Z,13.90
2023-04-09T19:23:31.835Z,13.80
2023-04-09T19:25:58.823Z,13.70
2023-04-09T19:28:25.581Z,13.70
2023-04-09T19:30:53.036Z,13.60
2023-04-09T19:33:21.451Z,13.50
2023-04-09T19:35:49.305Z,13.50
2023-04-09T19:38:17.464Z,13.40
2023-04-09T19:40:45.017Z,13.30
2023-04-09T19:43:12.163Z,13.30
2023-04-09T19:45:39.690Z,13.20
2023-04-09T19:48:07.351Z,13.20
2023-04-09T19:50:38.396Z,13.10
2023-04-09T19:53:06.169Z,13.10
2023-04-09T19:55:36.717Z,13.00
2023-04-09T19:58:03.919Z,13.00
2023-04-09T20:00:32.244Z,13.00
2023-04-09T20:03:01.728Z,12.90
2023-04-09T20:05:29.400Z,12.80
2023-04-09T20:07:56.074Z,12.80
2023-04-09T20:10:22.915Z,12.70
2023-04-09T20:12:50.893Z,12.70
2023-04-09T20:15:21.406Z,12.70
2023-04-09T20:17:48.891Z,12.70
2023-04-09T20:20:19.844Z,12.60
2023-04-09T20:22:55.580Z,12.60
2023-04-09T20:25:23.862Z,12.60
2023-04-09T20:27:53.174Z,12.50
2023-04-09T20:30:20.615Z,12.50
2023-04-09T20:32:48.886Z,12.50
2023-04-09T20:35:16.351Z,12.50
2023-04-09T20:37:43.372Z,12.50
2023-04-09T20:40:11.863Z,12.50
2023-04-09T20:42:42.113Z,12.50
2023-04-09T20:45:12.604Z,12.50
2023-04-09T20:47:39.617Z,12.50
2023-04-09T20:50:06.932Z,12.50
2023-04-09T20:52:33.692Z,12.50
2023-04-09T20:55:00.917Z,12.50
2023-04-09T20:57:28.228Z,12.50
2023-04-09T20:59:55.077Z,12.50
2023-04-09T21:02:22.017Z,12.50
2023-04-09T21:04:48.977Z,12.40
2023-04-09T21:07:15.715Z,12.40
2023-04-09T21:09:42.463Z,12.40
2023-04-09T21:12:11.664Z,12.40
2023-04-09T21:14:47.004Z,12.40
2023-04-09T21:17:13.893Z,12.30
2023-04-09T21:19:40.833Z,12.30
2023-04-09T21:22:07.691Z,12.30
2023-04-09T21:24:35.312Z,12.30
2023-04-09T21:27:06.893Z,12.30
2023-04-09T21:29:34.867Z,12.20
2023-04-09T21:32:01.711Z,12.20
2023-04-09T21:34:28.984Z,12.20
2023-04-09T21:36:57.121Z,12.10
2023-04-09T21:39:23.888Z,12.10
2023-04-09T21:41:50.689Z,12.10
2023-04-09T21:44:19.273Z,12.10
2023-04-09T21:46:46.235Z,12.00
2023-04-09T21:49:13.133Z,12.00
2023-04-09T21:51:39.983Z,12.00
2023-04-09T21:54:09.009Z,12.00
2023-04-09T21:56:39.259Z,12.00
2023-04-09T21:59:09.148Z,11.90
2023-04-09T22:04:16.603Z,11.90
2023-04-09T22:06:49.080Z,11.80
2023-04-09T22:09:15.911Z,11.80
2023-04-09T22:11:42.678Z,11.80
2023-04-09T22:14:09.535Z,11.70
2023-04-09T22:16:36.241Z,11.70
2023-04-09T22:19:03.031Z,11.70
2023-04-09T22:21:29.944Z,11.70
2023-04-09T22:23:56.618Z,11.60
2023-04-09T22:26:26.626Z,11.60
2023-04-09T22:28:53.761Z,11.60
2023-04-09T22:31:21.177Z,11.60
2023-04-09T22:33:47.986Z,11.50
2023-04-09T22:36:14.901Z,11.50
2023-04-09T22:38:41.910Z,11.50
2023-04-09T22:41:08.699Z,11.50
2023-04-09T22:43:36.262Z,11.40
2023-04-09T22:46:03.355Z,11.40
2023-04-09T22:48:30.946Z,11.30
2023-04-09T22:50:58.702Z,11.30
2023-04-09T22:53:26.068Z,11.30
2023-04-09T22:55:55.135Z,11.20
2023-04-09T22:58:21.932Z,11.20
2023-04-09T23:00:50.578Z,11.20
2023-04-09T23:03:17.805Z,11.20
2023-04-09T23:05:44.998Z,11.10
2023-04-09T23:08:12.121Z,11.10
2023-04-09T23:10:39.005Z,11.10
2023-04-09T23:13:06.114Z,11.00
2023-04-09T23:15:32.939Z,11.00
2023-04-09T23:17:59.729Z,11.00
2023-04-09T23:20:26.569Z,11.00
2023-04-09T23:22:53.317Z,10.90
2023-04-09T23:25:21.889Z,10.90
2023-04-09T23:27:48.936Z,10.90
2023-04-09T23:30:17.045Z,10.90
2023-04-09T23:32:52.610Z,10.90
2023-04-09T23:35:20.688Z,10.90
2023-04-09T23:37:49.083Z,10.90
2023-04-09T23:40:18.080Z,10.80
2023-04-09T23:42:45.760Z,10.80
2023-04-09T23:45:12.604Z,10.80
2023-04-09T23:47:39.672Z,10.80
2023-04-09T23:50:07.831Z,10.70
2023-04-09T23:52:36.639Z,10.70
2023-04-09T23:55:04.375Z,10.70
2023-04-09T23:57:31.218Z,10.70
2023-04-09T23:59:58.037Z,10.70
